sensor_id;sensor_type;location;lat;lon;timestamp;pressure;altitude;pressure_sealevel;temperature;humidity
31183;BME280;17813;0.000;0.000;2023-07-31T00:02:14;99136.16;;;16.11;67.14
31183;BME280;17813;0.000;0.000;2023-07-31T00:04:41;99127.44;;;16.19;66.62
31183;BME280;17813;0.000;0.000;2023-07-31T00:07:09;99116.47;;;16.22;66.54
31183;BME280;17813;0.000;0.000;2023-07-31T00:09:37;99125.63;;;16.29;65.93
31183;BME280;17813;0.000;0.000;2023-07-31T00:12:05;99123.09;;;16.37;65.87
31183;BME280;17813;0.000;0.000;2023-07-31T00:14:38;99125.06;;;16.45;65.84
31183;BME280;17813;0.000;0.000;2023-07-31T00:17:05;99121.97;;;16.49;65.67
31183;BME280;17813;0.000;0.000;2023-07-31T00:19:32;99113.81;;;16.51;66.01
31183;BME280;17813;0.000;0.000;2023-07-31T00:21:59;99106.75;;;16.50;65.91
31183;BME280;17813;0.000;0.000;2023-07-31T00:24:26;99104.66;;;16.53;66.06
31183;BME280;17813;0.000;0.000;2023-07-31T00:26:53;99102.53;;;16.57;65.99
31183;BME280;17813;0.000;0.000;2023-07-31T00:29:20;99104.38;;;16.56;65.70
31183;BME280;17813;0.000;0.000;2023-07-31T00:31:47;99105.50;;;16.54;65.91
31183;BME280;17813;0.000;0.000;2023-07-31T00:34:14;99103.94;;;16.51;66.10
31183;BME280;17813;0.000;0.000;2023-07-31T00:36:42;99098.59;;;16.51;66.28
31183;BME280;17813;0.000;0.000;2023-07-31T00:39:09;99096.47;;;16.55;65.88
31183;BME280;17813;0.000;0.000;2023-07-31T00:41:36;99102.13;;;16.52;65.44
31183;BME280;17813;0.000;0.000;2023-07-31T00:44:03;99086.63;;;16.55;65.46
31183;BME280;17813;0.000;0.000;2023-07-31T00:46:30;99083.38;;;16.61;65.57
31183;BME280;17813;0.000;0.000;2023-07-31T00:48:57;99083.94;;;16.55;65.38
31183;BME280;17813;0.000;0.000;2023-07-31T00:51:24;99080.56;;;16.63;65.16
31183;BME280;17813;0.000;0.000;2023-07-31T00:53:52;99082.38;;;16.62;65.36
31183;BME280;17813;0.000;0.000;2023-07-31T00:56:20;99093.41;;;16.69;65.21
31183;BME280;17813;0.000;0.000;2023-07-31T00:58:50;99094.53;;;16.76;65.21
31183;BME280;17813;0.000;0.000;2023-07-31T01:01:20;99089.16;;;16.76;65.10
31183;BME280;17813;0.000;0.000;2023-07-31T01:03:50;99080.69;;;16.81;65.15
31183;BME280;17813;0.000;0.000;2023-07-31T01:11:56;99096.31;;;16.95;65.57
31183;BME280;17813;0.000;0.000;2023-07-31T01:14:24;99094.59;;;17.03;65.38
31183;BME280;17813;0.000;0.000;2023-07-31T01:16:50;99098.84;;;17.06;65.78
31183;BME280;17813;0.000;0.000;2023-07-31T01:19:25;99096.56;;;17.11;65.69
31183;BME280;17813;0.000;0.000;2023-07-31T01:22:35;99098.13;;;17.04;66.15
31183;BME280;17813;0.000;0.000;2023-07-31T01:25:15;99097.00;;;17.07;66.75
31183;BME280;17813;0.000;0.000;2023-07-31T01:28:03;99093.38;;;16.88;68.13
31183;BME280;17813;0.000;0.000;2023-07-31T01:30:36;99089.69;;;16.89;68.37
31183;BME280;17813;0.000;0.000;2023-07-31T01:33:04;99090.28;;;16.83;69.39
31183;BME280;17813;0.000;0.000;2023-07-31T01:35:37;99077.59;;;16.76;70.38
31183;BME280;17813;0.000;0.000;2023-07-31T01:38:08;99077.91;;;16.73;70.36
31183;BME280;17813;0.000;0.000;2023-07-31T01:40:35;99076.75;;;16.75;70.26
31183;BME280;17813;0.000;0.000;2023-07-31T01:43:02;99082.25;;;16.74;71.03
31183;BME280;17813;0.000;0.000;2023-07-31T01:45:29;99070.00;;;16.71;71.07
31183;BME280;17813;0.000;0.000;2023-07-31T01:47:56;99076.19;;;16.62;71.92
31183;BME280;17813;0.000;0.000;2023-07-31T01:50:24;99080.41;;;16.64;71.64
31183;BME280;17813;0.000;0.000;2023-07-31T01:52:51;99075.34;;;16.61;72.53
31183;BME280;17813;0.000;0.000;2023-07-31T01:55:17;99064.94;;;16.49;73.96
31183;BME280;17813;0.000;0.000;2023-07-31T01:57:48;99061.56;;;16.37;73.96
31183;BME280;17813;0.000;0.000;2023-07-31T02:00:15;99054.38;;;16.37;74.47
31183;BME280;17813;0.000;0.000;2023-07-31T02:02:42;99051.28;;;16.32;74.99
31183;BME280;17813;0.000;0.000;2023-07-31T02:05:09;99052.25;;;16.31;75.20
31183;BME280;17813;0.000;0.000;2023-07-31T02:07:40;99049.16;;;16.26;75.29
31183;BME280;17813;0.000;0.000;2023-07-31T02:10:10;99042.69;;;16.19;75.88
31183;BME280;17813;0.000;0.000;2023-07-31T02:12:36;99035.94;;;16.15;77.05
31183;BME280;17813;0.000;0.000;2023-07-31T02:15:05;99031.97;;;16.10;77.29
31183;BME280;17813;0.000;0.000;2023-07-31T02:17:36;99021.28;;;16.10;76.91
31183;BME280;17813;0.000;0.000;2023-07-31T02:20:05;99029.88;;;16.03;77.72
31183;BME280;17813;0.000;0.000;2023-07-31T02:22:32;99023.25;;;16.07;77.38
31183;BME280;17813;0.000;0.000;2023-07-31T02:24:59;99017.91;;;16.07;77.14
31183;BME280;17813;0.000;0.000;2023-07-31T02:27:26;99019.03;;;16.15;76.84
31183;BME280;17813;0.000;0.000;2023-07-31T02:29:54;99019.31;;;16.12;77.36
31183;BME280;17813;0.000;0.000;2023-07-31T02:32:24;99018.03;;;16.16;77.14
31183;BME280;17813;0.000;0.000;2023-07-31T02:34:54;99022.69;;;16.14;77.74
31183;BME280;17813;0.000;0.000;2023-07-31T02:37:21;99019.03;;;16.15;77.65
31183;BME280;17813;0.000;0.000;2023-07-31T02:39:48;99017.06;;;16.17;77.69
31183;BME280;17813;0.000;0.000;2023-07-31T02:42:15;99021.97;;;16.21;77.16
31183;BME280;17813;0.000;0.000;2023-07-31T02:44:42;99014.09;;;16.20;77.73
31183;BME280;17813;0.000;0.000;2023-07-31T02:47:09;99016.63;;;16.21;77.56
31183;BME280;17813;0.000;0.000;2023-07-31T02:49:35;99017.06;;;16.17;78.25
31183;BME280;17813;0.000;0.000;2023-07-31T02:52:03;99025.09;;;16.07;78.74
31183;BME280;17813;0.000;0.000;2023-07-31T02:54:30;99022.69;;;16.04;78.72
31183;BME280;17813;0.000;0.000;2023-07-31T02:56:56;99030.28;;;15.99;79.35
31183;BME280;17813;0.000;0.000;2023-07-31T02:59:24;99023.38;;;15.96;79.87
31183;BME280;17813;0.000;0.000;2023-07-31T03:01:52;99033.25;;;15.96;79.43
31183;BME280;17813;0.000;0.000;2023-07-31T03:04:18;99022.13;;;15.91;79.82
31183;BME280;17813;0.000;0.000;2023-07-31T03:06:45;99028.03;;;15.94;79.50
31183;BME280;17813;0.000;0.000;2023-07-31T03:09:13;99038.03;;;15.92;80.21
31183;BME280;17813;0.000;0.000;2023-07-31T03:11:39;99035.22;;;15.94;79.86
31183;BME280;17813;0.000;0.000;2023-07-31T03:14:06;99035.06;;;15.95;79.54
31183;BME280;17813;0.000;0.000;2023-07-31T03:16:33;99031.41;;;15.96;79.39
31183;BME280;17813;0.000;0.000;2023-07-31T03:19:00;99026.91;;;15.97;80.14
31183;BME280;17813;0.000;0.000;2023-07-31T03:21:27;99026.78;;;15.98;80.03
31183;BME280;17813;0.000;0.000;2023-07-31T03:23:56;99022.53;;;15.96;80.15
31183;BME280;17813;0.000;0.000;2023-07-31T03:26:23;99025.91;;;15.88;81.61
31183;BME280;17813;0.000;0.000;2023-07-31T03:28:50;99027.44;;;15.81;81.78
31183;BME280;17813;0.000;0.000;2023-07-31T03:31:17;99025.50;;;15.83;81.88
31183;BME280;17813;0.000;0.000;2023-07-31T03:33:44;99020.41;;;15.80;81.97
31183;BME280;17813;0.000;0.000;2023-07-31T03:36:12;99020.28;;;15.82;81.90
31183;BME280;17813;0.000;0.000;2023-07-31T03:38:38;99023.78;;;15.82;82.04
31183;BME280;17813;0.000;0.000;2023-07-31T03:41:08;99024.63;;;15.73;82.50
31183;BME280;17813;0.000;0.000;2023-07-31T03:43:36;99026.44;;;15.72;83.18
31183;BME280;17813;0.000;0.000;2023-07-31T03:46:04;99027.16;;;15.74;83.10
31183;BME280;17813;0.000;0.000;2023-07-31T03:48:34;99020.00;;;15.75;82.77
31183;BME280;17813;0.000;0.000;2023-07-31T03:51:02;99019.00;;;15.76;83.04
31183;BME280;17813;0.000;0.000;2023-07-31T03:53:29;99017.59;;;15.82;82.78
31183;BME280;17813;0.000;0.000;2023-07-31T03:55:55;99015.50;;;15.85;82.85
31183;BME280;17813;0.000;0.000;2023-07-31T03:58:23;99018.75;;;15.89;82.25
31183;BME280;17813;0.000;0.000;2023-07-31T04:00:50;99011.28;;;15.92;82.65
31183;BME280;17813;0.000;0.000;2023-07-31T04:03:16;99008.75;;;15.91;82.97
31183;BME280;17813;0.000;0.000;2023-07-31T04:05:44;99007.63;;;15.93;82.77
31183;BME280;17813;0.000;0.000;2023-07-31T04:08:10;99016.50;;;15.94;82.83
31183;BME280;17813;0.000;0.000;2023-07-31T04:10:37;99009.31;;;15.94;82.76
31183;BME280;17813;0.000;0.000;2023-07-31T04:13:05;99005.66;;;15.95;82.83
31183;BME280;17813;0.000;0.000;2023-07-31T04:15:32;99003.25;;;16.02;82.56
31183;BME280;17813;0.000;0.000;2023-07-31T04:17:59;98999.19;;;16.07;82.30
31183;BME280;17813;0.000;0.000;2023-07-31T04:20:25;98997.06;;;16.11;82.58
31183;BME280;17813;0.000;0.000;2023-07-31T04:22:55;98989.19;;;16.19;82.00
31183;BME280;17813;0.000;0.000;2023-07-31T04:25:23;98987.63;;;16.26;82.03
31183;BME280;17813;0.000;0.000;2023-07-31T04:27:50;98983.94;;;16.37;81.70
31183;BME280;17813;0.000;0.000;2023-07-31T04:30:17;98986.91;;;16.44;81.50
31183;BME280;17813;0.000;0.000;2023-07-31T04:32:51;98985.22;;;16.43;80.85
31183;BME280;17813;0.000;0.000;2023-07-31T04:35:18;98978.72;;;16.45;81.11
31183;BME280;17813;0.000;0.000;2023-07-31T04:37:44;98983.94;;;16.37;81.69
31183;BME280;17813;0.000;0.000;2023-07-31T04:40:16;98973.81;;;16.40;81.43
31183;BME280;17813;0.000;0.000;2023-07-31T04:42:46;98976.47;;;16.40;81.75
31183;BME280;17813;0.000;0.000;2023-07-31T04:45:13;98976.75;;;16.47;81.22
31183;BME280;17813;0.000;0.000;2023-07-31T04:47:41;98972.09;;;16.49;81.44
31183;BME280;17813;0.000;0.000;2023-07-31T04:50:08;98985.03;;;16.54;81.16
31183;BME280;17813;0.000;0.000;2023-07-31T04:52:35;98974.19;;;16.55;80.82
31183;BME280;17813;0.000;0.000;2023-07-31T04:55:03;98980.25;;;16.57;80.84
31183;BME280;17813;0.000;0.000;2023-07-31T04:57:33;98974.22;;;16.46;81.16
31183;BME280;17813;0.000;0.000;2023-07-31T05:00:06;98980.41;;;16.46;81.29
31183;BME280;17813;0.000;0.000;2023-07-31T05:02:33;98978.44;;;16.48;80.85
31183;BME280;17813;0.000;0.000;2023-07-31T05:04:59;98973.22;;;16.47;80.68
31183;BME280;17813;0.000;0.000;2023-07-31T05:07:26;98990.41;;;16.54;80.97
31183;BME280;17813;0.000;0.000;2023-07-31T05:09:53;98983.78;;;16.48;80.92
31183;BME280;17813;0.000;0.000;2023-07-31T05:12:20;98995.03;;;16.52;81.22
31183;BME280;17813;0.000;0.000;2023-07-31T05:14:47;98987.16;;;16.50;81.26
31183;BME280;17813;0.000;0.000;2023-07-31T05:17:13;98987.72;;;16.54;81.18
31183;BME280;17813;0.000;0.000;2023-07-31T05:19:40;98984.47;;;16.60;80.67
31183;BME280;17813;0.000;0.000;2023-07-31T05:22:08;98981.66;;;16.52;81.17
31183;BME280;17813;0.000;0.000;2023-07-31T05:24:35;98974.59;;;16.60;81.07
31183;BME280;17813;0.000;0.000;2023-07-31T05:27:02;98970.78;;;16.63;81.15
31183;BME280;17813;0.000;0.000;2023-07-31T05:29:32;98958.41;;;16.62;81.30
31183;BME280;17813;0.000;0.000;2023-07-31T05:31:58;98960.81;;;16.65;81.39
31183;BME280;17813;0.000;0.000;2023-07-31T05:34:26;98958.97;;;16.65;81.32
31183;BME280;17813;0.000;0.000;2023-07-31T05:36:53;98957.25;;;16.74;81.28
31183;BME280;17813;0.000;0.000;2023-07-31T05:39:23;98962.91;;;16.71;81.15
31183;BME280;17813;0.000;0.000;2023-07-31T05:41:50;98966.53;;;16.80;80.89
31183;BME280;17813;0.000;0.000;2023-07-31T05:44:17;98962.13;;;16.88;80.82
31183;BME280;17813;0.000;0.000;2023-07-31T05:46:44;98955.34;;;16.94;80.59
31183;BME280;17813;0.000;0.000;2023-07-31T05:49:10;98959.97;;;17.01;80.31
31183;BME280;17813;0.000;0.000;2023-07-31T05:51:37;98951.19;;;17.09;79.77
31183;BME280;17813;0.000;0.000;2023-07-31T05:54:05;98943.59;;;17.04;79.41
31183;BME280;17813;0.000;0.000;2023-07-31T05:56:32;98948.00;;;17.23;79.44
31183;BME280;17813;0.000;0.000;2023-07-31T05:59:00;98951.19;;;17.36;78.81
31183;BME280;17813;0.000;0.000;2023-07-31T06:01:28;98945.22;;;17.43;78.80
31183;BME280;17813;0.000;0.000;2023-07-31T06:03:55;98956.81;;;17.61;78.74
31183;BME280;17813;0.000;0.000;2023-07-31T06:06:23;98954.94;;;17.71;78.13
31183;BME280;17813;0.000;0.000;2023-07-31T06:08:50;98949.25;;;17.74;77.43
31183;BME280;17813;0.000;0.000;2023-07-31T06:11:18;98957.47;;;17.90;77.68
31183;BME280;17813;0.000;0.000;2023-07-31T06:13:46;98957.75;;;18.05;76.86
31183;BME280;17813;0.000;0.000;2023-07-31T06:16:14;98954.41;;;18.21;76.79
31183;BME280;17813;0.000;0.000;2023-07-31T06:18:43;98953.16;;;18.33;75.95
31183;BME280;17813;0.000;0.000;2023-07-31T06:21:11;98949.66;;;18.84;76.30
31183;BME280;17813;0.000;0.000;2023-07-31T06:23:40;98952.22;;;19.36;74.07
31183;BME280;17813;0.000;0.000;2023-07-31T06:26:13;98950.13;;;19.56;72.16
31183;BME280;17813;0.000;0.000;2023-07-31T06:28:40;98948.63;;;19.62;71.54
31183;BME280;17813;0.000;0.000;2023-07-31T06:31:07;98946.75;;;19.54;70.89
31183;BME280;17813;0.000;0.000;2023-07-31T06:33:34;98956.94;;;19.42;70.91
31183;BME280;17813;0.000;0.000;2023-07-31T06:36:01;98959.22;;;19.21;70.73
31183;BME280;17813;0.000;0.000;2023-07-31T06:38:30;98954.66;;;19.13;71.09
31183;BME280;17813;0.000;0.000;2023-07-31T06:40:57;98970.09;;;19.11;70.97
31183;BME280;17813;0.000;0.000;2023-07-31T06:43:25;98958.19;;;19.14;70.92
31183;BME280;17813;0.000;0.000;2023-07-31T06:45:55;98949.97;;;19.15;69.89
31183;BME280;17813;0.000;0.000;2023-07-31T06:48:22;98952.03;;;19.30;69.96
31183;BME280;17813;0.000;0.000;2023-07-31T06:50:53;98954.41;;;19.41;69.63
31183;BME280;17813;0.000;0.000;2023-07-31T06:53:24;98963.19;;;19.51;69.31
31183;BME280;17813;0.000;0.000;2023-07-31T06:55:52;98957.63;;;19.44;67.83
31183;BME280;17813;0.000;0.000;2023-07-31T06:58:22;98964.41;;;19.56;68.81
31183;BME280;17813;0.000;0.000;2023-07-31T07:00:54;98954.19;;;19.68;68.58
31183;BME280;17813;0.000;0.000;2023-07-31T07:03:20;98952.38;;;19.85;67.72
31183;BME280;17813;0.000;0.000;2023-07-31T07:05:49;98954.88;;;19.86;65.99
31183;BME280;17813;0.000;0.000;2023-07-31T07:08:15;98947.66;;;19.95;66.32
31183;BME280;17813;0.000;0.000;2023-07-31T07:10:55;98949.53;;;20.03;65.75
31183;BME280;17813;0.000;0.000;2023-07-31T07:13:26;98951.72;;;20.15;65.71
31183;BME280;17813;0.000;0.000;2023-07-31T07:15:53;98955.91;;;20.18;65.58
31183;BME280;17813;0.000;0.000;2023-07-31T07:18:20;98957.94;;;20.16;66.25
31183;BME280;17813;0.000;0.000;2023-07-31T07:20:52;98968.03;;;19.98;65.36
31183;BME280;17813;0.000;0.000;2023-07-31T07:23:20;98969.16;;;19.79;65.08
31183;BME280;17813;0.000;0.000;2023-07-31T07:25:48;98974.38;;;19.72;66.08
31183;BME280;17813;0.000;0.000;2023-07-31T07:28:15;98971.66;;;19.64;66.37
31183;BME280;17813;0.000;0.000;2023-07-31T07:30:45;98971.91;;;19.45;66.88
31183;BME280;17813;0.000;0.000;2023-07-31T07:33:12;98978.13;;;19.45;66.65
31183;BME280;17813;0.000;0.000;2023-07-31T07:35:40;98985.69;;;19.42;66.62
31183;BME280;17813;0.000;0.000;2023-07-31T07:38:07;98978.97;;;19.46;67.01
31183;BME280;17813;0.000;0.000;2023-07-31T07:40:47;98972.19;;;19.25;65.97
31183;BME280;17813;0.000;0.000;2023-07-31T07:43:20;98977.84;;;19.14;66.22
31183;BME280;17813;0.000;0.000;2023-07-31T07:45:50;98979.16;;;19.10;66.89
31183;BME280;17813;0.000;0.000;2023-07-31T07:48:17;98965.94;;;19.17;67.29
31183;BME280;17813;0.000;0.000;2023-07-31T07:50:44;98969.84;;;19.31;67.01
31183;BME280;17813;0.000;0.000;2023-07-31T07:53:13;98966.03;;;19.41;66.72
31183;BME280;17813;0.000;0.000;2023-07-31T07:55:42;98969.56;;;19.42;66.33
31183;BME280;17813;0.000;0.000;2023-07-31T07:58:11;98967.22;;;19.47;65.81
31183;BME280;17813;0.000;0.000;2023-07-31T08:00:42;98968.34;;;19.36;66.44
31183;BME280;17813;0.000;0.000;2023-07-31T08:03:14;98962.00;;;19.45;66.13
31183;BME280;17813;0.000;0.000;2023-07-31T08:05:41;98959.19;;;19.55;66.12
31183;BME280;17813;0.000;0.000;2023-07-31T08:08:08;98966.59;;;19.61;65.78
31183;BME280;17813;0.000;0.000;2023-07-31T08:10:35;98959.56;;;19.68;65.22
31183;BME280;17813;0.000;0.000;2023-07-31T08:13:02;98968.97;;;19.64;64.86
31183;BME280;17813;0.000;0.000;2023-07-31T08:15:30;98969.31;;;19.61;64.93
31183;BME280;17813;0.000;0.000;2023-07-31T08:17:57;98970.97;;;19.62;65.00
31183;BME280;17813;0.000;0.000;2023-07-31T08:20:24;98968.47;;;19.69;64.61
31183;BME280;17813;0.000;0.000;2023-07-31T08:22:53;98965.28;;;19.65;64.88
31183;BME280;17813;0.000;0.000;2023-07-31T08:25:21;98966.13;;;19.66;65.61
31183;BME280;17813;0.000;0.000;2023-07-31T08:27:49;98958.22;;;19.64;65.17
31183;BME280;17813;0.000;0.000;2023-07-31T08:30:23;98956.53;;;19.71;65.15
31183;BME280;17813;0.000;0.000;2023-07-31T08:32:50;98946.81;;;19.86;65.11
31183;BME280;17813;0.000;0.000;2023-07-31T08:35:17;98954.22;;;19.84;64.28
31183;BME280;17813;0.000;0.000;2023-07-31T08:37:45;98945.47;;;19.99;64.37
31183;BME280;17813;0.000;0.000;2023-07-31T08:40:15;98950.03;;;20.14;64.00
31183;BME280;17813;0.000;0.000;2023-07-31T08:42:53;98948.34;;;20.38;64.42
31183;BME280;17813;0.000;0.000;2023-07-31T08:45:24;98957.59;;;20.60;62.50
31183;BME280;17813;0.000;0.000;2023-07-31T08:47:52;98953.91;;;20.52;61.49
31183;BME280;17813;0.000;0.000;2023-07-31T08:50:20;98950.53;;;20.50;62.11
31183;BME280;17813;0.000;0.000;2023-07-31T08:52:49;98954.56;;;20.63;62.22
31183;BME280;17813;0.000;0.000;2023-07-31T08:55:17;98955.03;;;20.74;62.02
31183;BME280;17813;0.000;0.000;2023-07-31T08:57:44;98956.22;;;20.88;61.54
31183;BME280;17813;0.000;0.000;2023-07-31T09:00:11;98951.44;;;21.06;61.36
31183;BME280;17813;0.000;0.000;2023-07-31T09:05:24;98942.13;;;21.56;60.32
31183;BME280;17813;0.000;0.000;2023-07-31T09:07:52;98941.25;;;21.87;58.81
31183;BME280;17813;0.000;0.000;2023-07-31T09:10:21;98930.13;;;22.12;57.96
31183;BME280;17813;0.000;0.000;2023-07-31T09:12:56;98933.78;;;22.20;57.56
31183;BME280;17813;0.000;0.000;2023-07-31T09:15:25;98937.97;;;22.22;56.69
31183;BME280;17813;0.000;0.000;2023-07-31T09:21:50;98929.75;;;22.16;56.42
31183;BME280;17813;0.000;0.000;2023-07-31T09:24:30;98931.97;;;22.50;56.57
31183;BME280;17813;0.000;0.000;2023-07-31T09:26:58;98934.78;;;22.71;55.37
31183;BME280;17813;0.000;0.000;2023-07-31T09:29:26;98935.34;;;22.66;55.67
31183;BME280;17813;0.000;0.000;2023-07-31T09:31:57;98936.09;;;22.60;55.63
31183;BME280;17813;0.000;0.000;2023-07-31T09:34:38;98934.94;;;22.40;55.09
31183;BME280;17813;0.000;0.000;2023-07-31T09:37:06;98942.19;;;22.39;56.96
31183;BME280;17813;0.000;0.000;2023-07-31T09:39:43;98930.16;;;22.27;57.20
31183;BME280;17813;0.000;0.000;2023-07-31T09:42:11;98932.16;;;22.10;57.63
31183;BME280;17813;0.000;0.000;2023-07-31T09:44:41;98924.41;;;22.07;59.09
31183;BME280;17813;0.000;0.000;2023-07-31T09:47:24;98920.50;;;21.87;59.35
31183;BME280;17813;0.000;0.000;2023-07-31T09:49:52;98916.38;;;21.76;59.68
31183;BME280;17813;0.000;0.000;2023-07-31T09:52:20;98917.19;;;21.77;59.82
31183;BME280;17813;0.000;0.000;2023-07-31T09:54:50;98911.91;;;21.61;59.97
31183;BME280;17813;0.000;0.000;2023-07-31T09:57:29;98905.38;;;21.78;60.42
31183;BME280;17813;0.000;0.000;2023-07-31T10:00:03;98904.72;;;21.76;59.66
31183;BME280;17813;0.000;0.000;2023-07-31T10:02:32;98894.94;;;21.75;59.71
31183;BME280;17813;0.000;0.000;2023-07-31T10:05:02;98903.13;;;22.12;60.85
31183;BME280;17813;0.000;0.000;2023-07-31T10:07:33;98892.94;;;23.11;57.52
31183;BME280;17813;0.000;0.000;2023-07-31T10:10:03;98891.03;;;23.56;54.59
31183;BME280;17813;0.000;0.000;2023-07-31T10:12:33;98890.66;;;23.80;54.27
31183;BME280;17813;0.000;0.000;2023-07-31T10:15:02;98890.25;;;24.26;53.37
31183;BME280;17813;0.000;0.000;2023-07-31T10:17:30;98888.00;;;24.57;52.19
31183;BME280;17813;0.000;0.000;2023-07-31T10:20:01;98890.91;;;24.90;52.04
31183;BME280;17813;0.000;0.000;2023-07-31T10:22:31;98886.81;;;25.01;50.50
31183;BME280;17813;0.000;0.000;2023-07-31T10:25:00;98893.38;;;24.85;50.23
31183;BME280;17813;0.000;0.000;2023-07-31T10:27:28;98886.91;;;25.21;50.96
31183;BME280;17813;0.000;0.000;2023-07-31T10:30:16;98892.34;;;25.27;48.57
31183;BME280;17813;0.000;0.000;2023-07-31T10:32:46;98882.78;;;24.90;48.07
31183;BME280;17813;0.000;0.000;2023-07-31T10:35:17;98893.53;;;24.77;50.02
31183;BME280;17813;0.000;0.000;2023-07-31T10:37:45;98880.16;;;24.69;48.83
31183;BME280;17813;0.000;0.000;2023-07-31T10:40:29;98890.75;;;24.64;49.46
31183;BME280;17813;0.000;0.000;2023-07-31T10:42:57;98877.41;;;24.62;48.82
31183;BME280;17813;0.000;0.000;2023-07-31T10:45:33;98878.19;;;24.91;49.62
31183;BME280;17813;0.000;0.000;2023-07-31T10:48:17;98872.41;;;25.00;49.67
31183;BME280;17813;0.000;0.000;2023-07-31T10:50:48;98867.53;;;24.89;47.77
31183;BME280;17813;0.000;0.000;2023-07-31T10:53:32;98876.63;;;24.75;47.87
31183;BME280;17813;0.000;0.000;2023-07-31T10:56:03;98866.78;;;24.67;47.80
31183;BME280;17813;0.000;0.000;2023-07-31T10:58:31;98873.03;;;24.68;48.64
31183;BME280;17813;0.000;0.000;2023-07-31T11:01:01;98873.59;;;24.57;47.07
31183;BME280;17813;0.000;0.000;2023-07-31T11:03:45;98876.88;;;24.46;48.02
31183;BME280;17813;0.000;0.000;2023-07-31T11:06:14;98875.88;;;24.53;48.18
31183;BME280;17813;0.000;0.000;2023-07-31T11:08:49;98863.97;;;24.48;48.00
31183;BME280;17813;0.000;0.000;2023-07-31T11:11:19;98849.97;;;24.44;48.29
31183;BME280;17813;0.000;0.000;2023-07-31T11:13:57;98855.28;;;24.59;48.23
31183;BME280;17813;0.000;0.000;2023-07-31T11:16:25;98848.22;;;24.64;46.62
31183;BME280;17813;0.000;0.000;2023-07-31T11:18:53;98840.41;;;24.89;47.02
31183;BME280;17813;0.000;0.000;2023-07-31T11:21:25;98834.66;;;24.99;47.06
31183;BME280;17813;0.000;0.000;2023-07-31T11:23:56;98855.50;;;24.98;46.66
31183;BME280;17813;0.000;0.000;2023-07-31T11:26:24;98835.00;;;24.89;46.23
31183;BME280;17813;0.000;0.000;2023-07-31T11:28:51;98834.50;;;25.20;46.90
31183;BME280;17813;0.000;0.000;2023-07-31T11:31:19;98818.09;;;25.48;46.01
31183;BME280;17813;0.000;0.000;2023-07-31T11:33:47;98807.72;;;25.98;45.63
31183;BME280;17813;0.000;0.000;2023-07-31T11:36:18;98819.03;;;26.35;44.37
31183;BME280;17813;0.000;0.000;2023-07-31T11:38:46;98813.78;;;25.93;44.80
31183;BME280;17813;0.000;0.000;2023-07-31T11:41:15;98811.63;;;25.62;43.90
31183;BME280;17813;0.000;0.000;2023-07-31T11:43:43;98809.94;;;25.48;44.59
31183;BME280;17813;0.000;0.000;2023-07-31T11:46:11;98806.97;;;25.30;44.54
31183;BME280;17813;0.000;0.000;2023-07-31T11:48:42;98815.72;;;25.19;44.67
31183;BME280;17813;0.000;0.000;2023-07-31T11:51:12;98816.03;;;24.96;45.03
31183;BME280;17813;0.000;0.000;2023-07-31T11:53:55;98821.81;;;24.45;46.38
31183;BME280;17813;0.000;0.000;2023-07-31T11:56:23;98820.47;;;24.28;46.25
31183;BME280;17813;0.000;0.000;2023-07-31T11:59:04;98817.88;;;23.92;46.50
31183;BME280;17813;0.000;0.000;2023-07-31T12:02:03;98827.38;;;24.09;47.60
31183;BME280;17813;0.000;0.000;2023-07-31T12:04:52;98817.00;;;24.41;47.06
31183;BME280;17813;0.000;0.000;2023-07-31T12:07:21;98811.72;;;24.67;46.53
31183;BME280;17813;0.000;0.000;2023-07-31T12:09:54;98797.66;;;24.91;46.99
31183;BME280;17813;0.000;0.000;2023-07-31T12:12:25;98790.88;;;25.15;46.68
31183;BME280;17813;0.000;0.000;2023-07-31T12:14:53;98797.09;;;25.03;47.31
31183;BME280;17813;0.000;0.000;2023-07-31T12:17:21;98783.88;;;24.93;48.05
31183;BME280;17813;0.000;0.000;2023-07-31T12:19:49;98786.13;;;24.76;48.40
31183;BME280;17813;0.000;0.000;2023-07-31T12:22:20;98778.88;;;24.42;48.42
31183;BME280;17813;0.000;0.000;2023-07-31T12:24:48;98777.97;;;24.69;49.83
31183;BME280;17813;0.000;0.000;2023-07-31T12:27:16;98779.50;;;24.92;50.42
31183;BME280;17813;0.000;0.000;2023-07-31T12:29:45;98775.81;;;24.99;50.42
31183;BME280;17813;0.000;0.000;2023-07-31T12:32:21;98768.66;;;24.92;50.59
31183;BME280;17813;0.000;0.000;2023-07-31T12:34:50;98769.09;;;24.95;49.94
31183;BME280;17813;0.000;0.000;2023-07-31T12:37:17;98771.94;;;24.74;50.15
31183;BME280;17813;0.000;0.000;2023-07-31T12:39:44;98770.59;;;24.57;49.86
31183;BME280;17813;0.000;0.000;2023-07-31T12:42:16;98767.25;;;24.55;50.26
31183;BME280;17813;0.000;0.000;2023-07-31T12:44:43;98762.00;;;24.47;51.30
31183;BME280;17813;0.000;0.000;2023-07-31T12:47:13;98761.19;;;24.53;51.38
31183;BME280;17813;0.000;0.000;2023-07-31T12:49:45;98759.13;;;24.55;51.14
31183;BME280;17813;0.000;0.000;2023-07-31T12:52:12;98759.16;;;24.61;50.02
31183;BME280;17813;0.000;0.000;2023-07-31T12:54:41;98747.56;;;24.87;50.08
31183;BME280;17813;0.000;0.000;2023-07-31T12:57:08;98739.84;;;24.91;49.19
31183;BME280;17813;0.000;0.000;2023-07-31T12:59:35;98743.41;;;24.91;47.47
31183;BME280;17813;0.000;0.000;2023-07-31T13:02:03;98741.31;;;24.93;47.98
31183;BME280;17813;0.000;0.000;2023-07-31T13:04:29;98746.53;;;24.95;47.23
31183;BME280;17813;0.000;0.000;2023-07-31T13:06:57;98744.41;;;24.77;48.06
31183;BME280;17813;0.000;0.000;2023-07-31T13:09:25;98751.34;;;24.45;47.79
31183;BME280;17813;0.000;0.000;2023-07-31T13:11:51;98752.03;;;24.19;48.22
31183;BME280;17813;0.000;0.000;2023-07-31T13:14:18;98758.78;;;24.02;48.59
31183;BME280;17813;0.000;0.000;2023-07-31T13:16:45;98740.16;;;24.20;48.55
31183;BME280;17813;0.000;0.000;2023-07-31T13:19:14;98741.22;;;24.26;48.63
31183;BME280;17813;0.000;0.000;2023-07-31T13:21:41;98736.53;;;24.41;48.08
31183;BME280;17813;0.000;0.000;2023-07-31T13:24:09;98742.31;;;24.73;47.75
31183;BME280;17813;0.000;0.000;2023-07-31T13:26:36;98728.03;;;24.98;46.43
31183;BME280;17813;0.000;0.000;2023-07-31T13:29:04;98734.50;;;25.11;46.16
31183;BME280;17813;0.000;0.000;2023-07-31T13:31:31;98729.72;;;25.13;45.51
31183;BME280;17813;0.000;0.000;2023-07-31T13:33:58;98726.09;;;24.92;45.18